Terminal Aerodrome Forecast
Issued by NWS

Home | Current Version | Previous Version | Text Only | Print | Product List | Glossary On
Versions: 1 2 3 4 5 6 7 8 9 10 11 12 13 14 15 16 17 18 19
748
FTUS43 KAPX 170520
TAFPLN
TAF
KPLN 170520Z 1706/1806 VRB03KT P6SM BKN250
     FM170900 08005KT P6SM OVC050
     FM171100 08006KT 2SM -PLSN OVC030
     FM171300 07007KT 1 1/2SM -FZRAPL OVC015
     FM171800 06007KT 3SM -FZRASNPL BR OVC008
     FM172200 04005KT 5SM -DZ OVC005
     FM180000 02004KT 6SM BR OVC008=

USA.gov is the U.S. government's official web portal to all federal, state and local government web resources and services.